Time;durP1;ratioP1;P1;durP2;ratioP2;P2;SDS_P1;SDS_P2;PMS_P1;PMS_P2;Temp;Humidity;BMP_temperature;BMP_pressure;BME280_temperature;BME280_humidity;BME280_pressure;Samples;Min_cycle;Max_cycle;Signal;HPM_P1;HPM_P2
2023/09/06 00:01:41;;;;;;;4.30;2.67;;;23.60;60.90;;;;;;5054230;28;20522;-70
2023/09/06 00:04:06;;;;;;;5.30;2.93;;;23.60;60.80;;;;;;5054808;28;20488;-70
2023/09/06 00:06:32;;;;;;;3.63;2.70;;;23.60;61.00;;;;;;5054168;28;20716;-69
2023/09/06 00:08:58;;;;;;;6.30;3.30;;;23.60;60.90;;;;;;5054207;28;20175;-70
2023/09/06 00:11:25;;;;;;;3.73;2.93;;;23.60;60.90;;;;;;5054091;28;20671;-70
2023/09/06 00:13:52;;;;;;;5.30;3.30;;;23.60;60.90;;;;;;5054034;28;20163;-69
2023/09/06 00:16:18;;;;;;;5.77;3.53;;;23.60;60.90;;;;;;5053964;28;20520;-69
2023/09/06 00:18:43;;;;;;;3.57;2.70;;;23.60;61.00;;;;;;5054249;28;20559;-69
2023/09/06 00:21:09;;;;;;;6.53;3.50;;;23.60;60.90;;;;;;5053930;28;20224;-69
2023/09/06 00:23:35;;;;;;;3.60;3.03;;;23.60;60.90;;;;;;5053909;28;20175;-70
2023/09/06 00:26:00;;;;;;;3.63;2.93;;;23.60;60.90;;;;;;5053904;28;20249;-70
2023/09/06 00:28:26;;;;;;;4.73;3.13;;;23.60;60.90;;;;;;5053862;28;20160;-70
2023/09/06 00:30:55;;;;;;;4.60;2.97;;;23.60;60.90;;;;;;5053951;28;20202;-69
2023/09/06 00:33:21;;;;;;;5.67;3.43;;;23.60;60.90;;;;;;5053719;28;20171;-69
2023/09/06 00:35:47;;;;;;;3.17;2.80;;;23.60;60.90;;;;;;5053593;28;20871;-69
2023/09/06 00:38:15;;;;;;;5.47;3.17;;;23.60;60.90;;;;;;5053535;28;20421;-69
2023/09/06 00:40:41;;;;;;;4.60;2.87;;;23.60;60.90;;;;;;5053589;28;20890;-69
2023/09/06 00:43:08;;;;;;;4.30;2.87;;;23.60;61.00;;;;;;5053689;28;20417;-69
2023/09/06 00:45:37;;;;;;;4.20;2.47;;;23.60;61.00;;;;;;5053553;28;20536;-69
2023/09/06 00:48:05;;;;;;;4.40;3.20;;;23.60;61.00;;;;;;5053239;28;20429;-69
2023/09/06 00:50:33;;;;;;;2.97;2.50;;;23.60;61.00;;;;;;5053367;28;20588;-68
2023/09/06 00:52:59;;;;;;;3.47;2.57;;;23.60;61.00;;;;;;5053394;28;20949;-69
2023/09/06 00:55:26;;;;;;;3.30;2.70;;;23.60;60.90;;;;;;5035332;28;20453;-70
2023/09/06 00:57:52;;;;;;;4.10;2.50;;;23.60;60.90;;;;;;5053474;28;20448;-69
2023/09/06 01:00:19;;;;;;;4.33;3.10;;;23.60;61.00;;;;;;5053293;28;20421;-69
2023/09/06 01:02:48;;;;;;;3.97;2.60;;;23.60;60.90;;;;;;5053175;28;20425;-69
2023/09/06 01:05:15;;;;;;;3.13;2.50;;;23.60;60.90;;;;;;5053148;28;20417;-68
2023/09/06 01:07:45;;;;;;;5.30;3.80;;;23.60;60.90;;;;;;5053036;28;20444;-68
2023/09/06 01:10:11;;;;;;;4.40;2.70;;;23.60;60.90;;;;;;5035072;28;20806;-68
2023/09/06 01:12:36;;;;;;;3.63;2.80;;;23.60;60.90;;;;;;5053177;28;20453;-68
2023/09/06 01:15:06;;;;;;;4.83;2.30;;;23.60;60.90;;;;;;5052985;28;20635;-68
2023/09/06 01:17:35;;;;;;;4.97;2.73;;;23.60;60.90;;;;;;5052839;28;20191;-68
2023/09/06 01:20:29;;;;;;;4.20;2.60;;;23.60;60.90;;;;;;5052821;28;20414;-68
2023/09/06 01:23:05;;;;;;;3.70;2.73;;;23.60;60.80;;;;;;5053152;28;20393;-68
2023/09/06 01:25:31;;;;;;;2.80;2.50;;;23.60;60.90;;;;;;5053062;28;20401;-68
2023/09/06 01:27:57;;;;;;;2.53;2.03;;;23.60;60.90;;;;;;5052554;28;21271;-69
2023/09/06 01:30:29;;;;;;;4.20;2.50;;;23.60;61.00;;;;;;5052583;28;20179;-69
2023/09/06 01:32:54;;;;;;;4.77;3.20;;;23.60;61.00;;;;;;5052645;28;20451;-69
2023/09/06 01:35:20;;;;;;;3.70;2.97;;;23.60;61.00;;;;;;5052611;28;20488;-69
2023/09/06 01:37:45;;;;;;;3.57;2.53;;;23.60;60.90;;;;;;5052747;28;20226;-69
2023/09/06 01:40:17;;;;;;;3.40;2.90;;;23.60;61.00;;;;;;5052643;28;20194;-69
2023/09/06 01:42:44;;;;;;;3.30;2.60;;;23.60;61.00;;;;;;5052520;28;20167;-68
2023/09/06 01:45:10;;;;;;;5.63;3.00;;;23.60;61.00;;;;;;5052420;28;20409;-69
2023/09/06 01:47:36;;;;;;;3.90;2.43;;;23.60;60.90;;;;;;5017933;28;20472;-69
2023/09/06 01:50:03;;;;;;;2.40;2.13;;;23.60;61.00;;;;;;5052292;28;20427;-70
2023/09/06 01:52:28;;;;;;;5.00;3.20;;;23.60;61.00;;;;;;5052480;28;20890;-69
2023/09/06 01:54:54;;;;;;;3.73;2.60;;;23.60;61.00;;;;;;5052192;28;20409;-69
2023/09/06 01:57:20;;;;;;;2.70;2.30;;;23.60;61.00;;;;;;5052342;28;20198;-69
2023/09/06 01:59:50;;;;;;;3.00;2.37;;;23.60;60.90;;;;;;5051567;28;20623;-69
2023/09/06 02:02:16;;;;;;;3.87;3.00;;;23.60;60.90;;;;;;5052121;28;20269;-68
2023/09/06 02:04:42;;;;;;;3.73;3.20;;;23.60;60.90;;;;;;5051993;28;20505;-69
2023/09/06 02:07:07;;;;;;;3.57;2.53;;;23.60;60.90;;;;;;5051880;28;20433;-69
2023/09/06 02:09:33;;;;;;;4.00;2.50;;;23.60;61.00;;;;;;5051981;28;20175;-69
2023/09/06 02:11:59;;;;;;;3.50;2.30;;;23.60;60.90;;;;;;5051839;28;20202;-69
2023/09/06 02:14:25;;;;;;;4.00;2.40;;;23.60;60.90;;;;;;5033901;28;20328;-69
2023/09/06 02:16:50;;;;;;;3.17;2.33;;;23.60;61.00;;;;;;5051790;28;20812;-69
2023/09/06 02:19:16;;;;;;;3.30;2.50;;;23.60;61.00;;;;;;5051778;28;20190;-69
2023/09/06 02:21:42;;;;;;;5.43;3.30;;;23.60;60.90;;;;;;5051710;28;20171;-69
2023/09/06 02:24:08;;;;;;;3.23;2.33;;;23.60;60.90;;;;;;5051658;28;20991;-70
2023/09/06 02:26:34;;;;;;;3.20;2.27;;;23.60;60.90;;;;;;5051470;28;20301;-69
2023/09/06 02:29:00;;;;;;;3.23;2.20;;;23.60;61.00;;;;;;5051588;28;20459;-69
2023/09/06 02:31:26;;;;;;;3.20;2.83;;;23.60;60.90;;;;;;5051694;28;20860;-69
2023/09/06 02:33:52;;;;;;;3.20;2.83;;;23.60;60.80;;;;;;5051513;28;20414;-68
2023/09/06 02:36:18;;;;;;;3.60;2.77;;;23.60;60.90;;;;;;5051405;28;20183;-69
2023/09/06 02:38:43;;;;;;;3.53;2.70;;;23.60;60.90;;;;;;5051401;28;20174;-69
2023/09/06 02:41:09;;;;;;;2.90;2.60;;;23.60;60.90;;;;;;5051388;28;20178;-69
2023/09/06 02:43:35;;;;;;;3.53;2.30;;;23.60;60.90;;;;;;5051294;28;20179;-69
2023/09/06 02:46:03;;;;;;;3.50;2.57;;;23.60;60.90;;;;;;5051160;28;20715;-69
2023/09/06 02:48:29;;;;;;;5.67;2.47;;;23.60;60.90;;;;;;5051247;28;20789;-69
2023/09/06 02:50:56;;;;;;;2.50;1.97;;;23.60;60.80;;;;;;5051168;28;20421;-68
2023/09/06 02:53:22;;;;;;;2.70;2.27;;;23.60;60.90;;;;;;5051475;28;20417;-69
2023/09/06 02:55:51;;;;;;;2.60;2.40;;;23.60;60.90;;;;;;5051334;28;20405;-68
2023/09/06 02:58:18;;;;;;;3.13;2.20;;;23.60;60.90;;;;;;5051080;28;20197;-69
2023/09/06 03:00:49;;;;;;;2.53;2.20;;;23.60;60.90;;;;;;5051053;28;20421;-68
2023/09/06 03:03:16;;;;;;;3.40;2.87;;;23.60;60.90;;;;;;5051085;28;20431;-69
2023/09/06 03:05:42;;;;;;;3.03;2.33;;;23.60;60.90;;;;;;5051056;28;20406;-69
2023/09/06 03:08:12;;;;;;;3.90;2.87;;;23.60;60.80;;;;;;5051109;28;20418;-70
2023/09/06 03:10:44;;;;;;;5.93;3.17;;;23.60;61.00;;;;;;5049944;28;20440;-70
2023/09/06 03:13:10;;;;;;;3.37;2.30;;;23.60;60.90;;;;;;5050879;28;20422;-68
2023/09/06 03:15:36;;;;;;;2.83;2.50;;;23.60;60.90;;;;;;5050876;28;20444;-69
2023/09/06 03:18:02;;;;;;;4.13;2.63;;;23.60;60.80;;;;;;5050957;28;20333;-69
2023/09/06 03:20:42;;;;;;;2.87;2.47;;;23.60;60.90;;;;;;5050789;28;20175;-68
2023/09/06 03:23:18;;;;;;;3.30;2.50;;;23.60;60.80;;;;;;5051068;28;20417;-68
2023/09/06 03:25:54;;;;;;;2.10;1.90;;;23.60;61.00;;;;;;5050632;28;20420;-69
2023/09/06 03:28:21;;;;;;;4.13;2.40;;;23.60;61.70;;;;;;5050748;28;20406;-69
2023/09/06 03:30:48;;;;;;;3.87;2.40;;;23.60;60.90;;;;;;5050636;28;20405;-69
2023/09/06 03:33:14;;;;;;;3.60;2.37;;;23.60;60.90;;;;;;5050698;28;20894;-69
2023/09/06 03:35:45;;;;;;;3.87;2.20;;;23.60;60.90;;;;;;5050931;28;20455;-68
2023/09/06 03:38:10;;;;;;;2.97;2.23;;;23.60;60.90;;;;;;5051035;28;20409;-69
2023/09/06 03:40:37;;;;;;;4.20;3.03;;;23.60;60.90;;;;;;5050593;28;20441;-69
2023/09/06 03:43:49;;;;;;;2.73;2.53;;;23.60;61.00;;;;;;5050627;28;20258;-69
2023/09/06 03:45:58;;;;;;;4.00;2.20;;;23.60;60.90;;;;;;5037065;28;20425;-70
2023/09/06 03:48:27;;;;;;;3.77;2.07;;;23.60;60.90;;;;;;5050833;28;20422;-68
2023/09/06 03:50:59;;;;;;;2.90;2.60;;;23.60;61.00;;;;;;5050419;28;20445;-68
2023/09/06 03:53:25;;;;;;;2.23;1.97;;;23.60;60.90;;;;;;5050568;28;20444;-68
2023/09/06 03:55:52;;;;;;;4.37;2.63;;;23.60;60.90;;;;;;5050397;28;20406;-69
2023/09/06 03:58:18;;;;;;;4.00;2.50;;;23.60;60.90;;;;;;5032652;28;20470;-68
2023/09/06 04:00:44;;;;;;;4.00;2.77;;;23.60;61.00;;;;;;5050697;28;20919;-69
2023/09/06 04:03:10;;;;;;;3.37;2.23;;;23.50;60.80;;;;;;5050450;28;20175;-69
2023/09/06 04:05:36;;;;;;;3.37;2.90;;;23.60;60.90;;;;;;5050301;28;20421;-69
2023/09/06 04:08:09;;;;;;;2.60;2.20;;;23.60;61.00;;;;;;5050285;28;20429;-69
2023/09/06 04:10:38;;;;;;;3.90;3.10;;;23.60;60.90;;;;;;5050374;28;20393;-68
2023/09/06 04:13:08;;;;;;;3.00;2.37;;;23.60;61.00;;;;;;5050657;28;20417;-69
2023/09/06 04:15:35;;;;;;;3.00;2.57;;;23.60;60.90;;;;;;5050527;28;20867;-68
2023/09/06 04:18:02;;;;;;;3.27;2.10;;;23.60;60.90;;;;;;5050188;28;20433;-68
2023/09/06 04:20:32;;;;;;;3.27;2.40;;;23.60;61.70;;;;;;5050505;28;20409;-69
2023/09/06 04:22:59;;;;;;;3.60;2.47;;;23.60;60.90;;;;;;5053392;28;20552;-68
2023/09/06 04:25:26;;;;;;;2.83;2.43;;;23.60;60.90;;;;;;5053988;28;20417;-68
2023/09/06 04:27:54;;;;;;;2.47;1.90;;;23.60;60.80;;;;;;5053798;28;20491;-69
2023/09/06 04:30:22;;;;;;;2.40;2.13;;;23.60;60.80;;;;;;5053903;28;20488;-69
2023/09/06 04:32:47;;;;;;;2.50;2.03;;;23.60;60.80;;;;;;5053732;28;20459;-68
2023/09/06 04:35:15;;;;;;;2.90;1.90;;;23.60;60.80;;;;;;5053837;28;20409;-69
2023/09/06 04:37:41;;;;;;;3.23;2.70;;;23.50;60.80;;;;;;5053667;28;20659;-69
2023/09/06 04:40:11;;;;;;;3.20;2.13;;;23.60;60.90;;;;;;5053655;28;20441;-69
2023/09/06 04:42:39;;;;;;;3.17;2.30;;;23.60;60.90;;;;;;5053573;28;20448;-69
2023/09/06 04:45:14;;;;;;;3.50;2.53;;;23.60;60.90;;;;;;5053527;28;20409;-70
2023/09/06 04:47:39;;;;;;;2.40;2.20;;;23.60;60.90;;;;;;5053757;28;20429;-68
2023/09/06 04:50:06;;;;;;;4.30;2.43;;;23.60;60.90;;;;;;5053479;28;20413;-69
2023/09/06 04:52:37;;;;;;;3.43;2.13;;;23.60;61.00;;;;;;5053272;28;20194;-69
2023/09/06 04:55:08;;;;;;;2.77;2.00;;;23.50;60.80;;;;;;5035444;28;20414;-69
2023/09/06 04:57:34;;;;;;;5.50;3.40;;;23.60;60.80;;;;;;5053442;28;20426;-69
2023/09/06 05:00:00;;;;;;;3.20;2.63;;;23.50;60.80;;;;;;5053292;28;20420;-68
2023/09/06 05:02:26;;;;;;;3.97;2.50;;;23.60;61.00;;;;;;5053195;28;20562;-68
2023/09/06 05:04:52;;;;;;;2.63;2.20;;;23.60;60.90;;;;;;5053369;28;20425;-69
2023/09/06 05:07:18;;;;;;;3.23;2.40;;;23.60;60.90;;;;;;5053076;28;20199;-68
2023/09/06 05:09:45;;;;;;;2.60;2.13;;;23.60;60.90;;;;;;5052977;28;20422;-68
2023/09/06 05:12:11;;;;;;;2.60;2.40;;;23.60;60.90;;;;;;5052976;28;20199;-68
2023/09/06 05:14:36;;;;;;;3.10;2.30;;;23.60;60.80;;;;;;5053045;28;20420;-68
2023/09/06 05:17:02;;;;;;;2.40;1.90;;;23.50;60.80;;;;;;5035156;28;20282;-69
2023/09/06 05:19:27;;;;;;;2.60;2.17;;;23.60;61.00;;;;;;5035012;28;20229;-68
2023/09/06 05:21:55;;;;;;;4.30;2.30;;;23.60;60.90;;;;;;5052882;28;20179;-69
2023/09/06 05:24:20;;;;;;;3.07;2.20;;;23.60;60.90;;;;;;5052839;28;20261;-69
2023/09/06 05:26:46;;;;;;;4.53;2.47;;;23.60;60.90;;;;;;5052819;28;20557;-68
2023/09/06 05:29:14;;;;;;;3.13;2.30;;;23.60;60.90;;;;;;5052722;28;20697;-68
2023/09/06 05:31:40;;;;;;;2.33;1.90;;;23.50;60.80;;;;;;5052983;28;20693;-68
2023/09/06 05:34:05;;;;;;;2.37;2.10;;;23.60;61.00;;;;;;5034037;28;20417;-67
2023/09/06 05:36:31;;;;;;;3.33;2.27;;;23.60;61.00;;;;;;5052624;28;20563;-69
2023/09/06 05:38:57;;;;;;;2.70;2.03;;;23.60;60.90;;;;;;5052536;28;20255;-68
2023/09/06 05:41:22;;;;;;;2.77;2.30;;;23.60;61.00;;;;;;5052506;28;20175;-68
2023/09/06 05:43:48;;;;;;;2.40;1.90;;;23.60;61.00;;;;;;5052461;28;20171;-68
2023/09/06 05:46:13;;;;;;;2.67;2.00;;;23.60;60.90;;;;;;5052352;28;20222;-68
2023/09/06 05:48:39;;;;;;;3.60;2.43;;;23.60;61.00;;;;;;5052441;28;20182;-68
2023/09/06 05:51:05;;;;;;;2.83;2.00;;;23.60;61.00;;;;;;5052484;28;20243;-69
2023/09/06 05:53:30;;;;;;;2.70;2.10;;;23.60;60.90;;;;;;5052312;28;20202;-70
2023/09/06 05:55:57;;;;;;;3.23;2.20;;;23.60;61.00;;;;;;5052209;28;20163;-69
2023/09/06 05:58:24;;;;;;;2.20;2.00;;;23.60;61.00;;;;;;5052472;28;20535;-68
2023/09/06 06:00:53;;;;;;;3.10;2.13;;;23.50;60.80;;;;;;5052169;28;20479;-68
2023/09/06 06:03:19;;;;;;;2.70;2.40;;;23.50;60.80;;;;;;5052288;28;20416;-68
2023/09/06 06:05:45;;;;;;;2.50;2.17;;;23.60;61.00;;;;;;5051984;28;20527;-67
2023/09/06 06:08:10;;;;;;;2.17;1.90;;;23.60;61.00;;;;;;5052012;28;20441;-68
2023/09/06 06:10:36;;;;;;;2.07;1.80;;;23.60;60.90;;;;;;5051990;28;20170;-68
2023/09/06 06:13:03;;;;;;;2.73;2.17;;;23.60;61.00;;;;;;5051892;28;20206;-69
2023/09/06 06:15:29;;;;;;;3.00;2.40;;;23.60;61.00;;;;;;5052145;28;20175;-68
2023/09/06 06:17:55;;;;;;;2.83;1.97;;;23.60;61.00;;;;;;5033545;28;20476;-68
2023/09/06 06:20:21;;;;;;;2.50;2.20;;;23.60;61.00;;;;;;5051168;28;20244;-68
2023/09/06 06:22:47;;;;;;;2.00;1.80;;;23.60;61.00;;;;;;5051417;28;20183;-70
2023/09/06 06:25:17;;;;;;;3.10;2.80;;;23.60;61.00;;;;;;5051282;28;20933;-69
2023/09/06 06:27:43;;;;;;;3.13;2.50;;;23.60;61.00;;;;;;5051112;28;20301;-69
2023/09/06 06:30:11;;;;;;;2.70;2.33;;;23.50;60.80;;;;;;5048639;28;20509;-68
2023/09/06 06:32:36;;;;;;;2.67;2.00;;;23.50;60.90;;;;;;5050798;28;20187;-69
2023/09/06 06:35:05;;;;;;;3.33;2.33;;;23.60;61.00;;;;;;5050745;28;20418;-68
2023/09/06 06:37:32;;;;;;;3.53;2.37;;;23.60;61.10;;;;;;5030240;28;20195;-69
2023/09/06 06:39:58;;;;;;;1.87;1.67;;;23.50;60.80;;;;;;5050983;28;20980;-69
2023/09/06 06:42:25;;;;;;;2.47;1.97;;;23.60;61.00;;;;;;5051179;28;20420;-69
2023/09/06 06:44:51;;;;;;;3.07;1.93;;;23.60;61.00;;;;;;5048043;28;20960;-68
2023/09/06 06:47:17;;;;;;;2.80;2.10;;;23.60;61.10;;;;;;5050973;28;20433;-68
2023/09/06 06:49:43;;;;;;;2.30;2.10;;;23.60;61.10;;;;;;5051180;28;20424;-68
2023/09/06 06:52:08;;;;;;;2.20;1.87;;;23.60;61.10;;;;;;5033070;28;20281;-68
2023/09/06 06:54:34;;;;;;;2.97;2.40;;;23.60;61.10;;;;;;5050687;28;20418;-68
2023/09/06 06:57:00;;;;;;;2.13;1.90;;;23.60;61.90;;;;;;5032463;28;20187;-68
2023/09/06 06:59:27;;;;;;;3.10;2.80;;;23.60;61.10;;;;;;5032894;28;20528;-68
2023/09/06 07:01:52;;;;;;;4.20;2.33;;;23.60;61.10;;;;;;5050841;28;20210;-68
2023/09/06 07:04:18;;;;;;;2.90;2.17;;;23.60;61.10;;;;;;5050981;28;20828;-67
2023/09/06 07:06:44;;;;;;;2.90;2.03;;;23.60;61.10;;;;;;5051164;28;20957;-69
2023/09/06 07:09:10;;;;;;;2.70;2.30;;;23.60;61.10;;;;;;5050933;28;20222;-69
2023/09/06 07:11:39;;;;;;;3.47;2.47;;;23.60;61.20;;;;;;5051130;28;20457;-68
2023/09/06 07:14:05;;;;;;;2.57;2.03;;;23.60;61.10;;;;;;5051077;28;20421;-69
2023/09/06 07:16:33;;;;;;;3.00;2.23;;;23.60;61.10;;;;;;5049643;28;20806;-68
2023/09/06 07:18:59;;;;;;;2.73;2.30;;;23.60;61.10;;;;;;5049780;28;20546;-68
2023/09/06 07:21:25;;;;;;;2.90;1.90;;;23.60;61.20;;;;;;5049442;28;20421;-69
2023/09/06 07:23:51;;;;;;;2.60;2.20;;;23.60;61.10;;;;;;5050109;28;20190;-68
2023/09/06 07:26:17;;;;;;;2.77;2.37;;;23.60;61.10;;;;;;5050614;28;20453;-69
2023/09/06 07:28:45;;;;;;;3.10;2.27;;;23.60;61.20;;;;;;5050826;28;20182;-68
2023/09/06 07:31:11;;;;;;;2.93;2.20;;;23.60;61.90;;;;;;5049896;28;20211;-68
2023/09/06 07:33:38;;;;;;;3.27;2.50;;;23.60;61.20;;;;;;5031554;28;20417;-68
2023/09/06 07:36:04;;;;;;;2.20;1.93;;;23.60;61.10;;;;;;5049328;28;20437;-69
2023/09/06 07:38:30;;;;;;;2.40;2.00;;;23.60;61.20;;;;;;5049355;28;20501;-68
2023/09/06 07:41:00;;;;;;;2.73;2.30;;;23.60;61.10;;;;;;5031278;28;20420;-69
2023/09/06 07:43:28;;;;;;;3.63;2.70;;;23.60;61.10;;;;;;5049207;28;20420;-69
2023/09/06 07:45:57;;;;;;;2.70;2.43;;;23.60;61.00;;;;;;5050161;28;21023;-68
2023/09/06 07:48:25;;;;;;;3.13;2.60;;;23.60;60.80;;;;;;5050376;28;21082;-69
2023/09/06 07:50:51;;;;;;;2.43;2.23;;;23.60;60.70;;;;;;5050304;28;20910;-68
2023/09/06 07:53:16;;;;;;;2.77;2.33;;;23.60;60.70;;;;;;5050121;28;20408;-66
2023/09/06 07:55:46;;;;;;;2.70;2.23;;;23.60;60.90;;;;;;5050525;28;20171;-68
2023/09/06 07:58:15;;;;;;;3.17;2.50;;;23.60;60.90;;;;;;5054587;28;20659;-68
2023/09/06 08:00:41;;;;;;;2.83;2.37;;;23.60;60.90;;;;;;5055046;28;20410;-67
2023/09/06 08:03:07;;;;;;;3.03;2.37;;;23.60;61.00;;;;;;5054300;28;20486;-69
2023/09/06 08:05:35;;;;;;;3.27;2.30;;;23.60;61.00;;;;;;5053813;28;20962;-68
2023/09/06 08:08:01;;;;;;;2.83;2.53;;;23.60;61.00;;;;;;5054466;28;20199;-68
2023/09/06 08:10:27;;;;;;;2.70;2.40;;;23.60;61.00;;;;;;5054293;28;20914;-68
2023/09/06 08:12:52;;;;;;;4.63;2.37;;;23.60;60.90;;;;;;5035924;28;20457;-68
2023/09/06 08:15:18;;;;;;;2.97;2.60;;;23.60;60.90;;;;;;5053699;28;20182;-68
2023/09/06 08:17:47;;;;;;;2.60;2.40;;;23.60;60.90;;;;;;5053963;28;20191;-68
2023/09/06 08:20:14;;;;;;;3.10;2.80;;;23.60;60.90;;;;;;5053960;28;20170;-69
2023/09/06 08:22:41;;;;;;;4.57;2.80;;;23.60;61.00;;;;;;5053961;28;20409;-68
2023/09/06 08:25:07;;;;;;;3.30;3.00;;;23.60;61.00;;;;;;5053784;28;20401;-69
2023/09/06 08:27:32;;;;;;;3.63;2.43;;;23.60;60.90;;;;;;5053674;28;20965;-68
2023/09/06 08:29:58;;;;;;;3.57;2.50;;;23.60;61.00;;;;;;5053665;28;20537;-68
2023/09/06 08:32:24;;;;;;;2.97;2.50;;;23.60;61.00;;;;;;5053664;28;20256;-68
2023/09/06 08:34:50;;;;;;;4.80;3.10;;;23.60;61.00;;;;;;5053935;28;20245;-68
2023/09/06 08:37:16;;;;;;;2.80;2.60;;;23.60;61.20;;;;;;5053591;28;20464;-68
2023/09/06 08:39:41;;;;;;;2.60;2.40;;;23.60;61.00;;;;;;5053909;28;20175;-69
2023/09/06 08:42:07;;;;;;;3.43;3.13;;;23.60;61.00;;;;;;5053609;28;20183;-68
2023/09/06 08:44:33;;;;;;;3.60;3.17;;;23.60;61.00;;;;;;5035544;28;20746;-68
2023/09/06 08:47:05;;;;;;;5.47;2.90;;;23.60;60.90;;;;;;5053781;28;20623;-68
2023/09/06 08:49:31;;;;;;;3.27;2.97;;;23.60;60.90;;;;;;5053853;28;20406;-68
2023/09/06 08:51:59;;;;;;;5.00;3.27;;;23.60;61.00;;;;;;5053378;28;20534;-69
2023/09/06 08:54:26;;;;;;;5.47;4.03;;;23.60;61.00;;;;;;5053438;28;20417;-68
2023/09/06 08:56:53;;;;;;;4.07;2.80;;;23.60;61.00;;;;;;5053279;28;20436;-69
2023/09/06 08:59:19;;;;;;;4.13;3.10;;;23.60;61.00;;;;;;5053355;28;20409;-69
2023/09/06 09:01:45;;;;;;;3.93;2.90;;;23.60;61.00;;;;;;5053244;28;20414;-68
2023/09/06 09:04:12;;;;;;;3.70;3.30;;;23.60;61.00;;;;;;5053321;28;20905;-68
2023/09/06 09:06:42;;;;;;;4.90;3.30;;;23.60;61.00;;;;;;5053158;28;20211;-68
2023/09/06 09:09:17;;;;;;;3.83;2.77;;;23.60;61.00;;;;;;5035216;28;20453;-69
2023/09/06 09:11:45;;;;;;;4.60;3.47;;;23.70;61.10;;;;;;5053032;28;20453;-68
2023/09/06 09:14:25;;;;;;;5.20;3.53;;;23.60;60.90;;;;;;5053089;28;20406;-69
2023/09/06 09:16:58;;;;;;;4.63;3.53;;;23.60;60.90;;;;;;5052945;28;20429;-68
2023/09/06 09:19:24;;;;;;;4.43;3.43;;;23.60;60.90;;;;;;5053000;28;20394;-68
2023/09/06 09:21:51;;;;;;;4.53;4.07;;;23.60;60.90;;;;;;5052943;28;20409;-68
2023/09/06 09:24:28;;;;;;;4.80;4.00;;;23.60;60.90;;;;;;5052890;28;20445;-68
2023/09/06 09:26:56;;;;;;;4.20;3.20;;;23.70;61.40;;;;;;5052631;28;20554;-67
2023/09/06 09:29:27;;;;;;;5.00;3.57;;;23.70;61.00;;;;;;5052784;28;20848;-68
2023/09/06 09:31:53;;;;;;;4.13;3.73;;;23.60;60.90;;;;;;5034657;28;20461;-69
2023/09/06 09:34:18;;;;;;;4.63;3.17;;;23.60;60.80;;;;;;5052671;28;20447;-69
2023/09/06 09:36:51;;;;;;;3.87;3.17;;;23.60;60.80;;;;;;5052361;28;20201;-69
2023/09/06 09:39:18;;;;;;;4.77;3.40;;;23.60;60.80;;;;;;5052582;28;20681;-67
2023/09/06 09:41:44;;;;;;;4.73;3.70;;;23.70;60.90;;;;;;5052509;28;20479;-68
2023/09/06 09:44:14;;;;;;;4.57;3.40;;;23.70;60.80;;;;;;5052459;28;20444;-68
2023/09/06 09:46:44;;;;;;;5.10;3.43;;;23.70;60.90;;;;;;5052722;28;20433;-68
2023/09/06 09:49:11;;;;;;;4.90;3.60;;;23.70;60.90;;;;;;5052429;28;20425;-68
2023/09/06 09:51:40;;;;;;;3.70;2.93;;;23.70;60.90;;;;;;5052599;28;20890;-68
2023/09/06 09:54:07;;;;;;;3.80;3.47;;;23.70;60.90;;;;;;5051882;28;20405;-68
2023/09/06 09:56:34;;;;;;;3.80;2.97;;;23.70;60.90;;;;;;5051677;28;20934;-68
2023/09/06 09:59:06;;;;;;;4.80;2.97;;;23.70;61.00;;;;;;5051634;28;20414;-69
2023/09/06 10:01:31;;;;;;;4.00;2.97;;;23.70;61.00;;;;;;5051630;28;20794;-68
2023/09/06 10:03:59;;;;;;;4.63;2.67;;;23.70;61.00;;;;;;5051567;28;20474;-68
2023/09/06 10:06:27;;;;;;;3.80;3.13;;;23.70;61.10;;;;;;5049231;28;20609;-68
2023/09/06 10:08:59;;;;;;;4.80;3.70;;;23.70;61.20;;;;;;5051431;28;20449;-67
2023/09/06 10:11:26;;;;;;;5.37;3.40;;;23.70;61.10;;;;;;5047893;28;20981;-68
2023/09/06 10:13:52;;;;;;;4.30;3.57;;;23.70;61.00;;;;;;5051571;28;20397;-68
2023/09/06 10:16:21;;;;;;;3.77;3.37;;;23.70;61.90;;;;;;5051274;28;20949;-69
2023/09/06 10:18:48;;;;;;;4.30;3.30;;;23.70;61.10;;;;;;5051178;28;20422;-67
2023/09/06 10:21:15;;;;;;;4.10;3.50;;;23.70;61.10;;;;;;5051955;28;20520;-68
2023/09/06 10:23:46;;;;;;;3.60;3.20;;;23.70;61.10;;;;;;5051762;28;20524;-69
2023/09/06 10:26:24;;;;;;;7.00;3.20;;;23.70;61.00;;;;;;5048121;28;20457;-68
2023/09/06 10:29:00;;;;;;;4.00;3.20;;;23.70;61.20;;;;;;5051571;28;20425;-68
2023/09/06 10:31:51;;;;;;;5.73;3.33;;;23.70;61.10;;;;;;5051519;28;20452;-68
2023/09/06 10:34:20;;;;;;;5.10;3.43;;;23.70;61.10;;;;;;5051423;28;20409;-68
2023/09/06 10:36:57;;;;;;;5.10;3.47;;;23.70;61.30;;;;;;5051544;28;20946;-68
2023/09/06 10:39:27;;;;;;;3.93;3.23;;;23.70;62.10;;;;;;5051659;28;20424;-68
2023/09/06 10:42:13;;;;;;;4.17;3.13;;;23.70;61.30;;;;;;5051368;28;20433;-68
2023/09/06 10:44:54;;;;;;;3.93;3.27;;;23.70;61.20;;;;;;5051326;28;20490;-69
2023/09/06 10:47:34;;;;;;;4.90;3.60;;;23.70;61.20;;;;;;5051294;28;20472;-68
2023/09/06 10:50:15;;;;;;;4.53;3.27;;;23.70;61.30;;;;;;5033184;28;21260;-68
2023/09/06 10:52:41;;;;;;;7.33;3.17;;;23.70;61.20;;;;;;5033162;28;20456;-68
2023/09/06 10:55:21;;;;;;;4.17;2.87;;;23.70;61.30;;;;;;5049439;28;20417;-68
2023/09/06 10:58:08;;;;;;;4.50;3.90;;;23.70;61.30;;;;;;5050786;28;20433;-69
2023/09/06 11:00:34;;;;;;;4.00;3.37;;;23.70;61.30;;;;;;5050433;28;20422;-68
2023/09/06 11:03:06;;;;;;;5.20;3.00;;;23.70;61.30;;;;;;5050938;28;20475;-68
2023/09/06 11:05:37;;;;;;;3.57;3.10;;;23.70;61.20;;;;;;5050992;28;20262;-68
2023/09/06 11:08:04;;;;;;;5.20;3.30;;;23.70;61.20;;;;;;5050943;28;20949;-68
2023/09/06 11:10:30;;;;;;;4.70;3.67;;;23.70;61.20;;;;;;5051135;28;20859;-67
2023/09/06 11:12:57;;;;;;;5.07;3.50;;;23.70;61.20;;;;;;5050861;28;20452;-67
2023/09/06 11:15:24;;;;;;;3.60;2.93;;;23.70;61.20;;;;;;5050936;28;20467;-68
2023/09/06 11:17:52;;;;;;;3.60;3.03;;;23.70;61.10;;;;;;5050791;28;20520;-68
2023/09/06 11:20:18;;;;;;;6.20;3.27;;;23.80;61.30;;;;;;5051072;28;20420;-70
2023/09/06 11:22:58;;;;;;;4.50;3.87;;;23.80;61.30;;;;;;5050903;28;20779;-68
2023/09/06 11:25:26;;;;;;;3.90;3.20;;;23.70;61.20;;;;;;5051026;28;20863;-68
2023/09/06 11:27:55;;;;;;;4.10;3.70;;;23.80;61.30;;;;;;5050384;28;20539;-69
2023/09/06 11:30:23;;;;;;;4.63;3.30;;;23.80;61.30;;;;;;5050619;28;20781;-69
2023/09/06 11:32:49;;;;;;;3.73;3.43;;;23.80;61.30;;;;;;5050405;28;20452;-68
2023/09/06 11:35:16;;;;;;;3.23;2.93;;;23.80;61.30;;;;;;5050729;28;20409;-67
2023/09/06 11:37:50;;;;;;;3.40;3.10;;;23.80;61.30;;;;;;5050826;28;20467;-69
2023/09/06 11:40:19;;;;;;;4.83;3.50;;;23.80;61.20;;;;;;5050608;28;20901;-68
2023/09/06 11:42:49;;;;;;;5.20;3.43;;;23.80;61.30;;;;;;5032669;28;20433;-69
2023/09/06 11:45:19;;;;;;;6.33;3.47;;;23.80;61.20;;;;;;5050501;28;20420;-69
2023/09/06 11:47:45;;;;;;;4.00;3.17;;;23.80;61.30;;;;;;5050467;28;20445;-68
2023/09/06 11:50:12;;;;;;;4.83;3.23;;;23.80;61.40;;;;;;5050493;28;20917;-68
2023/09/06 11:52:40;;;;;;;4.47;3.20;;;23.80;61.30;;;;;;5050725;28;20992;-67
2023/09/06 11:55:09;;;;;;;5.20;3.30;;;23.80;61.30;;;;;;5050693;28;20470;-68
2023/09/06 11:57:38;;;;;;;3.50;3.07;;;23.80;61.40;;;;;;5050365;28;20425;-68
2023/09/06 12:00:19;;;;;;;3.97;3.53;;;23.80;61.30;;;;;;5050406;28;20531;-69
2023/09/06 12:02:49;;;;;;;4.50;3.00;;;23.80;61.30;;;;;;5050430;28;20751;-68
2023/09/06 12:05:16;;;;;;;3.60;2.87;;;23.80;61.40;;;;;;5050656;28;20421;-69
2023/09/06 12:07:43;;;;;;;3.80;3.30;;;23.80;61.30;;;;;;5050279;28;20467;-69
2023/09/06 12:10:11;;;;;;;4.20;3.80;;;23.80;61.40;;;;;;5050349;28;20962;-69
2023/09/06 12:12:40;;;;;;;5.40;3.13;;;23.80;61.40;;;;;;5050310;28;20610;-69
2023/09/06 12:15:19;;;;;;;3.03;2.73;;;23.80;61.30;;;;;;5050299;28;20409;-69
2023/09/06 12:17:49;;;;;;;4.30;2.73;;;23.80;61.30;;;;;;5050224;28;20425;-68
2023/09/06 12:20:25;;;;;;;3.50;3.03;;;23.80;61.30;;;;;;5050163;28;20409;-68
2023/09/06 12:22:52;;;;;;;2.60;2.40;;;23.80;61.40;;;;;;5050202;28;20504;-68
2023/09/06 12:25:19;;;;;;;5.50;3.80;;;23.80;61.40;;;;;;5050131;28;20429;-68
2023/09/06 12:27:48;;;;;;;3.40;2.70;;;23.80;61.30;;;;;;5049807;28;20488;-68
2023/09/06 12:30:18;;;;;;;4.07;3.07;;;23.80;61.40;;;;;;5050392;28;20421;-67
2023/09/06 12:32:45;;;;;;;4.07;3.47;;;23.80;61.30;;;;;;5050113;28;20952;-68
2023/09/06 12:35:11;;;;;;;3.93;3.30;;;23.80;61.40;;;;;;5050430;28;20475;-68
2023/09/06 12:37:37;;;;;;;4.20;2.60;;;23.80;61.40;;;;;;5050041;28;20429;-68
2023/09/06 12:40:09;;;;;;;4.30;3.00;;;23.80;61.30;;;;;;5050695;28;20785;-69
2023/09/06 12:42:45;;;;;;;3.30;3.00;;;23.80;61.30;;;;;;5051229;28;20408;-67
2023/09/06 12:45:30;;;;;;;3.70;3.00;;;23.80;61.30;;;;;;5053617;28;20488;-68
2023/09/06 12:47:57;;;;;;;5.00;3.60;;;23.80;61.30;;;;;;5053496;28;20463;-69
2023/09/06 12:50:24;;;;;;;4.43;3.30;;;23.80;61.30;;;;;;5053872;28;20428;-68
2023/09/06 12:52:50;;;;;;;3.40;3.10;;;23.80;61.30;;;;;;5053464;28;21055;-68